If you wish to contribute or participate in the discussions about articles you are invited to join SKYbrary as a registered user

 Actions

Saint-Dizier-Robinson (BA 113) Air Base

From SKYbrary Wiki

LFSI
Airport
ICAO: LFSI
Summary
Name Saint-Dizier-Robinson (BA 113) Air Base
Region Europe
Territory France FR.gif
Location , Champagne-Ardenne
Serving St.-dizier
Elevation 139.598 m
458 ft
458 ft139.598 m
Type medium airport
Coordinates 48° 38' 9.63" N, 4° 53' 57.90" E
Runways
Designator Length Width Surface ROPS
11/29 2412 m7,913.386 ft
45 m147.638 ft
ASP /


METAR
Observation LFSI 110430Z AUTO 17005KT 7000 RA FEW017/// OVC037/// ///CB 04/02 Q1014
Station St-Dizier
Date/Time 11 December 2019 04:30:00
Wind direction 170°
Wind speed 05 kts
Lowest cloud amount few clouds
Temperature 4°C
Dew point 2°C
Humidity 86%
QNH 1014 hPa
Weather condition n/a